Terminal Aerodrome Forecast
Issued by NWS Sterling, VA

Home | Current Version | Previous Version | Text Only | Print | Product List | Glossary On
Versions: 1 2 3 4 5 6 7 8 9 10 11 12 13 14 15 16 17 18 19 20 21 22
000
FTUS41 KLWX 242332
TAFIAD
TAF
KIAD 242332Z 2500/2606 19005KT P6SM SCT150
     FM250200 VRB03KT P6SM BKN080
     FM250700 VRB03KT P6SM SCT200
     FM251100 20006KT P6SM SCT120
     FM251600 20013G22KT P6SM FEW250
     FM260000 19009KT P6SM FEW150=

USA.gov is the U.S. government's official web portal to all federal, state and local government web resources and services.